< Typhoon 197427 1974 Season Typhoon 197429 >
Typhoon 197428 (GLORIA)
General InformationTrack Information on Google Maps || Disaster Info.ResourceGoogle EarthGE AnimationAtom FeedGeoJSON
Detalied Best Track (Time Zone = UTC)
Year Month Day Hour Lat. Long. Pressure (hPa) Wind (kt) Class Image Chart
1974 11 2 12 7.0 142.0 1004 0 2 -- Chart
1974 11 2 18 7.0 142.0 1000 0 2 -- Chart
1974 11 3 00 7.3 141.4 990 0 2 -- Chart
1974 11 3 06 7.7 140.5 985 0 9 -- Chart
1974 11 3 12 8.5 139.5 985 0 9 -- Chart
1974 11 3 18 9.3 138.6 985 0 9 -- Chart
1974 11 4 00 10.3 137.7 985 0 9 -- Chart
1974 11 4 06 11.8 136.8 980 0 9 -- Chart
1974 11 4 12 13.6 135.2 970 0 9 -- Chart
1974 11 4 18 14.8 133.0 960 0 9 -- Chart
1974 11 5 00 15.5 131.3 950 0 9 -- Chart
1974 11 5 06 15.8 130.0 940 0 9 -- Chart
1974 11 5 12 15.9 128.6 950 0 9 -- Chart
1974 11 5 18 15.7 127.4 955 0 9 -- Chart
1974 11 6 00 15.8 126.6 945 0 9 -- Chart
1974 11 6 06 16.5 125.8 935 0 9 -- Chart
1974 11 6 12 17.3 124.7 930 0 9 -- Chart
1974 11 6 18 17.6 123.2 930 0 9 -- Chart
1974 11 7 00 18.2 121.6 960 0 9 -- Chart
1974 11 7 06 18.4 120.0 970 0 9 -- Chart
1974 11 7 12 18.7 119.2 970 0 9 -- Chart
1974 11 7 18 19.4 118.5 975 0 9 -- Chart
1974 11 8 00 20.0 117.9 980 0 9 -- Chart
1974 11 8 06 20.5 117.4 985 0 9 -- Chart
1974 11 8 12 21.3 117.0 985 0 9 -- Chart
1974 11 8 18 21.8 116.8 990 0 9 -- Chart
1974 11 9 00 22.3 116.7 992 0 9 -- Chart
1974 11 9 06 22.3 116.4 996 0 9 -- Chart
1974 11 9 12 22.0 116.0 1000 0 2 -- Chart
1974 11 9 18 21.5 116.0 1004 0 2 -- Chart
1974 11 10 00 21.0 116.0 1006 0 2 -- Chart
1974 11 10 06 20.8 115.5 1006 0 2 -- Chart
1974 11 10 12 20.8 115.0 1008 0 2 -- Chart
1974 11 10 18 20.9 114.5 1010 0 2 -- Chart
1974 11 11 00 21.0 114.0 1010 0 2 -- Chart
Japan Meteorological Agency Best Track Data | Correction Date : 1990-10-17
< Typhoon 197427 1974 Season Typhoon 197429 >

Help